sensor_id;sensor_type;location;lat;lon;timestamp;P1;durP1;ratioP1;P2;durP2;ratioP2
53710;SDS011;39605;52.704;6.752;2023-08-21T00:01:22;4.35;;;1.83;;
53710;SDS011;39605;52.704;6.752;2023-08-21T00:03:48;4.53;;;1.90;;
53710;SDS011;39605;52.704;6.752;2023-08-21T00:06:14;5.20;;;2.50;;
53710;SDS011;39605;52.704;6.752;2023-08-21T00:08:41;6.95;;;2.63;;
53710;SDS011;39605;52.704;6.752;2023-08-21T00:11:07;6.35;;;3.28;;
53710;SDS011;39605;52.704;6.752;2023-08-21T00:13:33;6.00;;;2.33;;
53710;SDS011;39605;52.704;6.752;2023-08-21T00:15:59;6.90;;;3.08;;
53710;SDS011;39605;52.704;6.752;2023-08-21T00:18:25;7.18;;;3.65;;
53710;SDS011;39605;52.704;6.752;2023-08-21T00:20:51;5.50;;;3.10;;
53710;SDS011;39605;52.704;6.752;2023-08-21T00:23:17;5.32;;;2.40;;
53710;SDS011;39605;52.704;6.752;2023-08-21T00:25:45;4.22;;;2.50;;
53710;SDS011;39605;52.704;6.752;2023-08-21T00:28:11;6.95;;;3.10;;
53710;SDS011;39605;52.704;6.752;2023-08-21T00:30:38;5.93;;;3.60;;
53710;SDS011;39605;52.704;6.752;2023-08-21T00:33:04;5.20;;;3.47;;
53710;SDS011;39605;52.704;6.752;2023-08-21T00:35:30;4.07;;;3.05;;
53710;SDS011;39605;52.704;6.752;2023-08-21T00:37:56;7.13;;;4.78;;
53710;SDS011;39605;52.704;6.752;2023-08-21T00:40:22;9.60;;;5.13;;
53710;SDS011;39605;52.704;6.752;2023-08-21T00:42:48;6.00;;;4.22;;
53710;SDS011;39605;52.704;6.752;2023-08-21T00:45:14;4.75;;;4.28;;
53710;SDS011;39605;52.704;6.752;2023-08-21T00:47:41;3.80;;;3.50;;
53710;SDS011;39605;52.704;6.752;2023-08-21T00:50:08;5.07;;;3.80;;
53710;SDS011;39605;52.704;6.752;2023-08-21T00:52:36;5.32;;;4.18;;
53710;SDS011;39605;52.704;6.752;2023-08-21T00:55:04;8.20;;;4.25;;
53710;SDS011;39605;52.704;6.752;2023-08-21T00:57:30;7.55;;;3.92;;
53710;SDS011;39605;52.704;6.752;2023-08-21T00:59:59;6.18;;;4.88;;
53710;SDS011;39605;52.704;6.752;2023-08-21T01:02:26;7.47;;;3.95;;
53710;SDS011;39605;52.704;6.752;2023-08-21T01:04:52;5.15;;;4.13;;
53710;SDS011;39605;52.704;6.752;2023-08-21T01:07:18;4.45;;;3.40;;
53710;SDS011;39605;52.704;6.752;2023-08-21T01:17:10;4.65;;;3.55;;
53710;SDS011;39605;52.704;6.752;2023-08-21T01:22:04;3.70;;;3.40;;
53710;SDS011;39605;52.704;6.752;2023-08-21T01:24:30;7.50;;;4.00;;
53710;SDS011;39605;52.704;6.752;2023-08-21T01:26:56;7.28;;;4.32;;
53710;SDS011;39605;52.704;6.752;2023-08-21T01:29:22;7.22;;;3.60;;
53710;SDS011;39605;52.704;6.752;2023-08-21T01:34:21;7.05;;;4.28;;
53710;SDS011;39605;52.704;6.752;2023-08-21T01:36:47;5.07;;;3.95;;
53710;SDS011;39605;52.704;6.752;2023-08-21T01:39:13;5.13;;;3.88;;
53710;SDS011;39605;52.704;6.752;2023-08-21T01:41:40;4.43;;;3.55;;
53710;SDS011;39605;52.704;6.752;2023-08-21T01:44:07;7.07;;;4.45;;
53710;SDS011;39605;52.704;6.752;2023-08-21T01:46:33;6.30;;;3.83;;
53710;SDS011;39605;52.704;6.752;2023-08-21T01:48:59;6.05;;;3.03;;
53710;SDS011;39605;52.704;6.752;2023-08-21T01:51:25;7.68;;;3.80;;
53710;SDS011;39605;52.704;6.752;2023-08-21T01:53:51;6.38;;;3.92;;
53710;SDS011;39605;52.704;6.752;2023-08-21T01:56:17;3.58;;;3.28;;
53710;SDS011;39605;52.704;6.752;2023-08-21T01:58:43;4.47;;;2.95;;
53710;SDS011;39605;52.704;6.752;2023-08-21T02:01:09;4.65;;;2.88;;
53710;SDS011;39605;52.704;6.752;2023-08-21T02:03:35;7.47;;;3.30;;
53710;SDS011;39605;52.704;6.752;2023-08-21T02:06:01;5.53;;;2.85;;
53710;SDS011;39605;52.704;6.752;2023-08-21T02:08:30;4.50;;;3.25;;
53710;SDS011;39605;52.704;6.752;2023-08-21T02:10:59;4.32;;;2.90;;
53710;SDS011;39605;52.704;6.752;2023-08-21T02:13:25;4.63;;;3.28;;
53710;SDS011;39605;52.704;6.752;2023-08-21T02:15:51;3.47;;;2.90;;
53710;SDS011;39605;52.704;6.752;2023-08-21T02:18:17;4.03;;;2.70;;
53710;SDS011;39605;52.704;6.752;2023-08-21T02:20:43;5.15;;;3.00;;
53710;SDS011;39605;52.704;6.752;2023-08-21T02:23:09;2.92;;;1.90;;
53710;SDS011;39605;52.704;6.752;2023-08-21T02:25:36;5.90;;;2.30;;
53710;SDS011;39605;52.704;6.752;2023-08-21T02:28:02;3.92;;;2.55;;
53710;SDS011;39605;52.704;6.752;2023-08-21T02:30:29;4.82;;;2.38;;
53710;SDS011;39605;52.704;6.752;2023-08-21T02:32:55;3.10;;;1.80;;
53710;SDS011;39605;52.704;6.752;2023-08-21T02:35:21;3.35;;;1.85;;
53710;SDS011;39605;52.704;6.752;2023-08-21T02:37:47;5.10;;;1.63;;
53710;SDS011;39605;52.704;6.752;2023-08-21T02:40:13;4.85;;;1.98;;
53710;SDS011;39605;52.704;6.752;2023-08-21T02:42:39;4.40;;;2.08;;
53710;SDS011;39605;52.704;6.752;2023-08-21T02:45:05;2.50;;;1.77;;
53710;SDS011;39605;52.704;6.752;2023-08-21T02:47:35;2.58;;;2.08;;
53710;SDS011;39605;52.704;6.752;2023-08-21T02:50:02;3.58;;;1.38;;
53710;SDS011;39605;52.704;6.752;2023-08-21T02:52:29;4.47;;;1.67;;
53710;SDS011;39605;52.704;6.752;2023-08-21T02:54:55;2.17;;;1.42;;
53710;SDS011;39605;52.704;6.752;2023-08-21T02:57:21;1.50;;;1.10;;
53710;SDS011;39605;52.704;6.752;2023-08-21T02:59:47;5.30;;;1.60;;
53710;SDS011;39605;52.704;6.752;2023-08-21T03:02:13;2.65;;;1.00;;
53710;SDS011;39605;52.704;6.752;2023-08-21T03:04:39;2.95;;;1.08;;
53710;SDS011;39605;52.704;6.752;2023-08-21T03:07:05;3.13;;;1.40;;
53710;SDS011;39605;52.704;6.752;2023-08-21T03:09:31;1.40;;;0.70;;
53710;SDS011;39605;52.704;6.752;2023-08-21T03:11:57;2.00;;;1.08;;
53710;SDS011;39605;52.704;6.752;2023-08-21T03:14:24;3.45;;;1.08;;
53710;SDS011;39605;52.704;6.752;2023-08-21T03:16:50;3.10;;;1.08;;
53710;SDS011;39605;52.704;6.752;2023-08-21T03:19:16;4.88;;;1.30;;
53710;SDS011;39605;52.704;6.752;2023-08-21T03:21:42;3.22;;;1.00;;
53710;SDS011;39605;52.704;6.752;2023-08-21T03:24:08;1.90;;;0.90;;
53710;SDS011;39605;52.704;6.752;2023-08-21T03:26:34;2.15;;;0.80;;
53710;SDS011;39605;52.704;6.752;2023-08-21T03:29:01;1.88;;;1.02;;
53710;SDS011;39605;52.704;6.752;2023-08-21T03:31:27;1.00;;;0.50;;
53710;SDS011;39605;52.704;6.752;2023-08-21T03:33:53;1.33;;;0.50;;
53710;SDS011;39605;52.704;6.752;2023-08-21T03:36:19;1.70;;;0.70;;
53710;SDS011;39605;52.704;6.752;2023-08-21T03:38:45;1.45;;;0.55;;
53710;SDS011;39605;52.704;6.752;2023-08-21T03:41:11;0.90;;;0.35;;
53710;SDS011;39605;52.704;6.752;2023-08-21T03:43:37;1.40;;;0.40;;
53710;SDS011;39605;52.704;6.752;2023-08-21T03:46:03;1.40;;;0.60;;
53710;SDS011;39605;52.704;6.752;2023-08-21T03:48:30;1.50;;;0.28;;
53710;SDS011;39605;52.704;6.752;2023-08-21T03:50:56;1.58;;;0.50;;
53710;SDS011;39605;52.704;6.752;2023-08-21T03:53:22;0.55;;;0.30;;
53710;SDS011;39605;52.704;6.752;2023-08-21T03:55:48;0.82;;;0.30;;
53710;SDS011;39605;52.704;6.752;2023-08-21T03:58:14;0.63;;;0.22;;
53710;SDS011;39605;52.704;6.752;2023-08-21T04:00:40;0.30;;;0.20;;
53710;SDS011;39605;52.704;6.752;2023-08-21T04:03:06;0.70;;;0.10;;
53710;SDS011;39605;52.704;6.752;2023-08-21T04:05:32;1.00;;;0.10;;
53710;SDS011;39605;52.704;6.752;2023-08-21T04:07:58;1.45;;;0.10;;
53710;SDS011;39605;52.704;6.752;2023-08-21T04:10:24;0.30;;;0.17;;
53710;SDS011;39605;52.704;6.752;2023-08-21T04:12:50;0.20;;;0.10;;
53710;SDS011;39605;52.704;6.752;2023-08-21T04:15:16;0.30;;;0.10;;
53710;SDS011;39605;52.704;6.752;2023-08-21T04:17:42;0.40;;;0.30;;
53710;SDS011;39605;52.704;6.752;2023-08-21T04:20:09;1.73;;;0.35;;
53710;SDS011;39605;52.704;6.752;2023-08-21T04:22:35;0.20;;;0.10;;
53710;SDS011;39605;52.704;6.752;2023-08-21T04:25:01;0.30;;;0.10;;
53710;SDS011;39605;52.704;6.752;2023-08-21T04:27:27;0.20;;;0.10;;
53710;SDS011;39605;52.704;6.752;2023-08-21T04:29:53;0.30;;;0.03;;
53710;SDS011;39605;52.704;6.752;2023-08-21T04:32:19;0.10;;;0.00;;
53710;SDS011;39605;52.704;6.752;2023-08-21T04:34:46;0.10;;;0.00;;
53710;SDS011;39605;52.704;6.752;2023-08-21T04:37:12;0.60;;;0.10;;
53710;SDS011;39605;52.704;6.752;2023-08-21T04:39:38;0.10;;;0.10;;
53710;SDS011;39605;52.704;6.752;2023-08-21T04:42:04;0.10;;;0.00;;
53710;SDS011;39605;52.704;6.752;2023-08-21T04:44:30;0.10;;;0.10;;
53710;SDS011;39605;52.704;6.752;2023-08-21T04:46:56;0.10;;;0.10;;
53710;SDS011;39605;52.704;6.752;2023-08-21T04:49:22;0.10;;;0.00;;
53710;SDS011;39605;52.704;6.752;2023-08-21T04:51:48;0.50;;;0.10;;
53710;SDS011;39605;52.704;6.752;2023-08-21T04:54:14;0.00;;;0.00;;
53710;SDS011;39605;52.704;6.752;2023-08-21T04:56:40;0.10;;;0.10;;
53710;SDS011;39605;52.704;6.752;2023-08-21T04:59:06;1.35;;;0.20;;
53710;SDS011;39605;52.704;6.752;2023-08-21T05:01:33;0.40;;;0.10;;
53710;SDS011;39605;52.704;6.752;2023-08-21T05:03:59;0.10;;;0.08;;
53710;SDS011;39605;52.704;6.752;2023-08-21T05:06:25;0.40;;;0.28;;
53710;SDS011;39605;52.704;6.752;2023-08-21T05:08:51;0.20;;;0.10;;
53710;SDS011;39605;52.704;6.752;2023-08-21T05:11:17;0.10;;;0.00;;
53710;SDS011;39605;52.704;6.752;2023-08-21T05:13:43;0.15;;;0.10;;
53710;SDS011;39605;52.704;6.752;2023-08-21T05:16:09;0.10;;;0.10;;
53710;SDS011;39605;52.704;6.752;2023-08-21T05:18:35;0.22;;;0.10;;
53710;SDS011;39605;52.704;6.752;2023-08-21T05:21:01;0.22;;;0.10;;
53710;SDS011;39605;52.704;6.752;2023-08-21T05:23:27;0.20;;;0.10;;
53710;SDS011;39605;52.704;6.752;2023-08-21T05:25:53;0.10;;;0.00;;
53710;SDS011;39605;52.704;6.752;2023-08-21T05:28:19;3.45;;;0.20;;
53710;SDS011;39605;52.704;6.752;2023-08-21T05:30:46;0.30;;;0.10;;
53710;SDS011;39605;52.704;6.752;2023-08-21T05:33:15;0.10;;;0.00;;
53710;SDS011;39605;52.704;6.752;2023-08-21T05:35:41;0.05;;;0.00;;
53710;SDS011;39605;52.704;6.752;2023-08-21T05:38:07;0.05;;;0.00;;
53710;SDS011;39605;52.704;6.752;2023-08-21T05:40:33;0.10;;;0.00;;
53710;SDS011;39605;52.704;6.752;2023-08-21T05:43:00;0.00;;;0.00;;
53710;SDS011;39605;52.704;6.752;2023-08-21T05:45:26;0.15;;;0.00;;
53710;SDS011;39605;52.704;6.752;2023-08-21T05:47:52;0.00;;;0.00;;
53710;SDS011;39605;52.704;6.752;2023-08-21T05:50:18;0.00;;;0.00;;
53710;SDS011;39605;52.704;6.752;2023-08-21T05:52:44;0.10;;;0.00;;
53710;SDS011;39605;52.704;6.752;2023-08-21T05:55:10;1.77;;;0.00;;
53710;SDS011;39605;52.704;6.752;2023-08-21T05:57:36;0.00;;;0.00;;
53710;SDS011;39605;52.704;6.752;2023-08-21T06:00:02;0.00;;;0.00;;
53710;SDS011;39605;52.704;6.752;2023-08-21T06:02:28;0.00;;;0.00;;
53710;SDS011;39605;52.704;6.752;2023-08-21T06:04:55;0.00;;;0.00;;
53710;SDS011;39605;52.704;6.752;2023-08-21T06:07:21;0.00;;;0.00;;
53710;SDS011;39605;52.704;6.752;2023-08-21T06:09:47;0.00;;;0.00;;
53710;SDS011;39605;52.704;6.752;2023-08-21T06:12:13;0.08;;;0.00;;
53710;SDS011;39605;52.704;6.752;2023-08-21T06:14:39;0.10;;;0.00;;
53710;SDS011;39605;52.704;6.752;2023-08-21T06:17:05;0.15;;;0.00;;
53710;SDS011;39605;52.704;6.752;2023-08-21T06:19:31;0.32;;;0.00;;
53710;SDS011;39605;52.704;6.752;2023-08-21T06:21:57;0.10;;;0.00;;
53710;SDS011;39605;52.704;6.752;2023-08-21T06:24:23;0.10;;;0.00;;
53710;SDS011;39605;52.704;6.752;2023-08-21T06:26:50;0.00;;;0.00;;
53710;SDS011;39605;52.704;6.752;2023-08-21T06:29:17;0.00;;;0.00;;
53710;SDS011;39605;52.704;6.752;2023-08-21T06:31:45;0.00;;;0.00;;
53710;SDS011;39605;52.704;6.752;2023-08-21T06:34:11;0.10;;;0.00;;
53710;SDS011;39605;52.704;6.752;2023-08-21T06:36:38;0.00;;;0.00;;
53710;SDS011;39605;52.704;6.752;2023-08-21T06:39:04;0.03;;;0.00;;
53710;SDS011;39605;52.704;6.752;2023-08-21T06:41:30;0.35;;;0.00;;
53710;SDS011;39605;52.704;6.752;2023-08-21T06:43:57;0.00;;;0.00;;
53710;SDS011;39605;52.704;6.752;2023-08-21T06:46:23;0.20;;;0.00;;
53710;SDS011;39605;52.704;6.752;2023-08-21T06:48:49;0.10;;;0.00;;
53710;SDS011;39605;52.704;6.752;2023-08-21T06:51:16;0.10;;;0.00;;
53710;SDS011;39605;52.704;6.752;2023-08-21T06:53:42;0.03;;;0.00;;
53710;SDS011;39605;52.704;6.752;2023-08-21T06:56:08;0.03;;;0.00;;
53710;SDS011;39605;52.704;6.752;2023-08-21T06:58:34;1.38;;;0.40;;
53710;SDS011;39605;52.704;6.752;2023-08-21T07:01:00;0.00;;;0.00;;
53710;SDS011;39605;52.704;6.752;2023-08-21T07:03:26;0.00;;;0.00;;
53710;SDS011;39605;52.704;6.752;2023-08-21T07:05:53;0.00;;;0.00;;
53710;SDS011;39605;52.704;6.752;2023-08-21T07:08:20;0.00;;;0.00;;
53710;SDS011;39605;52.704;6.752;2023-08-21T07:10:46;0.00;;;0.00;;
53710;SDS011;39605;52.704;6.752;2023-08-21T07:13:12;0.00;;;0.00;;
53710;SDS011;39605;52.704;6.752;2023-08-21T07:15:38;0.00;;;0.00;;
53710;SDS011;39605;52.704;6.752;2023-08-21T07:18:04;0.10;;;0.00;;
53710;SDS011;39605;52.704;6.752;2023-08-21T07:20:30;0.00;;;0.00;;
53710;SDS011;39605;52.704;6.752;2023-08-21T07:22:57;0.00;;;0.00;;
53710;SDS011;39605;52.704;6.752;2023-08-21T07:25:23;0.05;;;0.00;;
53710;SDS011;39605;52.704;6.752;2023-08-21T07:27:50;0.00;;;0.00;;
53710;SDS011;39605;52.704;6.752;2023-08-21T07:30:18;0.05;;;0.00;;
53710;SDS011;39605;52.704;6.752;2023-08-21T07:32:45;0.00;;;0.00;;
53710;SDS011;39605;52.704;6.752;2023-08-21T07:35:11;0.00;;;0.00;;
53710;SDS011;39605;52.704;6.752;2023-08-21T07:37:37;0.00;;;0.00;;
53710;SDS011;39605;52.704;6.752;2023-08-21T07:40:06;0.30;;;0.00;;
53710;SDS011;39605;52.704;6.752;2023-08-21T07:42:32;0.00;;;0.00;;
53710;SDS011;39605;52.704;6.752;2023-08-21T07:44:58;0.10;;;0.10;;
53710;SDS011;39605;52.704;6.752;2023-08-21T07:47:26;0.40;;;0.00;;
53710;SDS011;39605;52.704;6.752;2023-08-21T07:49:52;0.00;;;0.00;;
53710;SDS011;39605;52.704;6.752;2023-08-21T07:52:19;0.20;;;0.00;;
53710;SDS011;39605;52.704;6.752;2023-08-21T07:54:45;0.05;;;0.00;;
53710;SDS011;39605;52.704;6.752;2023-08-21T07:57:11;0.52;;;0.00;;
53710;SDS011;39605;52.704;6.752;2023-08-21T07:59:38;0.00;;;0.00;;
53710;SDS011;39605;52.704;6.752;2023-08-21T08:02:04;0.00;;;0.00;;
53710;SDS011;39605;52.704;6.752;2023-08-21T08:04:30;0.05;;;0.00;;
53710;SDS011;39605;52.704;6.752;2023-08-21T08:06:56;0.00;;;0.00;;
53710;SDS011;39605;52.704;6.752;2023-08-21T08:09:22;0.00;;;0.00;;
53710;SDS011;39605;52.704;6.752;2023-08-21T08:11:48;0.08;;;0.00;;
53710;SDS011;39605;52.704;6.752;2023-08-21T08:14:14;0.00;;;0.00;;
53710;SDS011;39605;52.704;6.752;2023-08-21T08:16:40;0.52;;;0.05;;
53710;SDS011;39605;52.704;6.752;2023-08-21T08:19:07;0.55;;;0.00;;
53710;SDS011;39605;52.704;6.752;2023-08-21T08:21:33;0.00;;;0.00;;
53710;SDS011;39605;52.704;6.752;2023-08-21T08:23:59;4.10;;;0.43;;
53710;SDS011;39605;52.704;6.752;2023-08-21T08:26:25;0.00;;;0.00;;
53710;SDS011;39605;52.704;6.752;2023-08-21T08:28:51;0.00;;;0.00;;
53710;SDS011;39605;52.704;6.752;2023-08-21T08:31:18;0.43;;;0.00;;
53710;SDS011;39605;52.704;6.752;2023-08-21T08:33:44;0.00;;;0.00;;
53710;SDS011;39605;52.704;6.752;2023-08-21T08:36:10;0.00;;;0.00;;
53710;SDS011;39605;52.704;6.752;2023-08-21T08:38:36;1.88;;;0.28;;
53710;SDS011;39605;52.704;6.752;2023-08-21T08:41:07;0.15;;;0.00;;
53710;SDS011;39605;52.704;6.752;2023-08-21T08:43:36;0.00;;;0.00;;
53710;SDS011;39605;52.704;6.752;2023-08-21T08:46:05;0.00;;;0.00;;
53710;SDS011;39605;52.704;6.752;2023-08-21T08:48:33;0.00;;;0.00;;
53710;SDS011;39605;52.704;6.752;2023-08-21T08:51:00;0.00;;;0.00;;
53710;SDS011;39605;52.704;6.752;2023-08-21T08:53:27;0.03;;;0.00;;
53710;SDS011;39605;52.704;6.752;2023-08-21T08:55:53;0.00;;;0.00;;
53710;SDS011;39605;52.704;6.752;2023-08-21T08:58:19;0.00;;;0.00;;
53710;SDS011;39605;52.704;6.752;2023-08-21T09:00:45;0.00;;;0.00;;
53710;SDS011;39605;52.704;6.752;2023-08-21T09:03:11;0.00;;;0.00;;
53710;SDS011;39605;52.704;6.752;2023-08-21T09:05:39;0.00;;;0.00;;
53710;SDS011;39605;52.704;6.752;2023-08-21T09:08:09;0.00;;;0.00;;
53710;SDS011;39605;52.704;6.752;2023-08-21T09:10:39;0.00;;;0.00;;
53710;SDS011;39605;52.704;6.752;2023-08-21T09:13:10;0.00;;;0.00;;
53710;SDS011;39605;52.704;6.752;2023-08-21T09:15:36;0.00;;;0.00;;
53710;SDS011;39605;52.704;6.752;2023-08-21T09:18:03;0.00;;;0.00;;
53710;SDS011;39605;52.704;6.752;2023-08-21T09:20:34;1.98;;;0.00;;
53710;SDS011;39605;52.704;6.752;2023-08-21T09:23:01;0.00;;;0.00;;
53710;SDS011;39605;52.704;6.752;2023-08-21T09:25:29;0.00;;;0.00;;
53710;SDS011;39605;52.704;6.752;2023-08-21T09:27:59;0.00;;;0.00;;
53710;SDS011;39605;52.704;6.752;2023-08-21T09:30:25;0.45;;;0.00;;
53710;SDS011;39605;52.704;6.752;2023-08-21T09:32:58;0.00;;;0.00;;
53710;SDS011;39605;52.704;6.752;2023-08-21T09:35:31;0.00;;;0.00;;
53710;SDS011;39605;52.704;6.752;2023-08-21T09:37:58;0.35;;;0.10;;
53710;SDS011;39605;52.704;6.752;2023-08-21T09:40:24;0.00;;;0.00;;
53710;SDS011;39605;52.704;6.752;2023-08-21T09:42:54;0.00;;;0.00;;
53710;SDS011;39605;52.704;6.752;2023-08-21T09:45:22;0.00;;;0.00;;
53710;SDS011;39605;52.704;6.752;2023-08-21T09:47:48;0.00;;;0.00;;
53710;SDS011;39605;52.704;6.752;2023-08-21T09:50:14;0.00;;;0.00;;
53710;SDS011;39605;52.704;6.752;2023-08-21T09:52:41;0.00;;;0.00;;
53710;SDS011;39605;52.704;6.752;2023-08-21T09:55:08;0.00;;;0.00;;
53710;SDS011;39605;52.704;6.752;2023-08-21T09:57:35;0.00;;;0.00;;
53710;SDS011;39605;52.704;6.752;2023-08-21T10:00:02;0.00;;;0.00;;
53710;SDS011;39605;52.704;6.752;2023-08-21T10:02:41;0.00;;;0.00;;
53710;SDS011;39605;52.704;6.752;2023-08-21T10:05:11;0.00;;;0.00;;
53710;SDS011;39605;52.704;6.752;2023-08-21T10:07:37;0.00;;;0.00;;
53710;SDS011;39605;52.704;6.752;2023-08-21T10:10:04;0.00;;;0.00;;
53710;SDS011;39605;52.704;6.752;2023-08-21T10:12:30;0.00;;;0.00;;
53710;SDS011;39605;52.704;6.752;2023-08-21T10:14:56;0.00;;;0.00;;
53710;SDS011;39605;52.704;6.752;2023-08-21T10:17:22;0.03;;;0.00;;
53710;SDS011;39605;52.704;6.752;2023-08-21T10:19:51;0.00;;;0.00;;
53710;SDS011;39605;52.704;6.752;2023-08-21T10:25:13;0.00;;;0.00;;
53710;SDS011;39605;52.704;6.752;2023-08-21T10:27:40;0.00;;;0.00;;
53710;SDS011;39605;52.704;6.752;2023-08-21T10:30:26;0.00;;;0.00;;
53710;SDS011;39605;52.704;6.752;2023-08-21T10:32:54;0.10;;;0.00;;
53710;SDS011;39605;52.704;6.752;2023-08-21T10:35:24;0.17;;;0.00;;
53710;SDS011;39605;52.704;6.752;2023-08-21T10:40:32;0.00;;;0.00;;
53710;SDS011;39605;52.704;6.752;2023-08-21T10:42:59;0.00;;;0.00;;
53710;SDS011;39605;52.704;6.752;2023-08-21T10:45:25;3.15;;;0.00;;
53710;SDS011;39605;52.704;6.752;2023-08-21T10:47:51;0.00;;;0.00;;
53710;SDS011;39605;52.704;6.752;2023-08-21T10:50:18;0.00;;;0.00;;
53710;SDS011;39605;52.704;6.752;2023-08-21T10:52:45;0.00;;;0.00;;
53710;SDS011;39605;52.704;6.752;2023-08-21T10:55:12;0.00;;;0.00;;
53710;SDS011;39605;52.704;6.752;2023-08-21T10:57:38;0.00;;;0.00;;
53710;SDS011;39605;52.704;6.752;2023-08-21T11:00:09;0.00;;;0.00;;
53710;SDS011;39605;52.704;6.752;2023-08-21T11:02:37;0.00;;;0.00;;
53710;SDS011;39605;52.704;6.752;2023-08-21T11:05:03;0.00;;;0.00;;
53710;SDS011;39605;52.704;6.752;2023-08-21T11:07:30;0.00;;;0.00;;
53710;SDS011;39605;52.704;6.752;2023-08-21T11:10:02;0.10;;;0.00;;
53710;SDS011;39605;52.704;6.752;2023-08-21T11:12:28;0.00;;;0.00;;
53710;SDS011;39605;52.704;6.752;2023-08-21T11:14:54;0.00;;;0.00;;
53710;SDS011;39605;52.704;6.752;2023-08-21T11:17:20;0.00;;;0.00;;
53710;SDS011;39605;52.704;6.752;2023-08-21T11:19:48;0.00;;;0.00;;
53710;SDS011;39605;52.704;6.752;2023-08-21T11:22:15;0.00;;;0.00;;
53710;SDS011;39605;52.704;6.752;2023-08-21T11:27:11;0.00;;;0.00;;
53710;SDS011;39605;52.704;6.752;2023-08-21T11:29:40;0.00;;;0.00;;
53710;SDS011;39605;52.704;6.752;2023-08-21T11:32:16;0.00;;;0.00;;
53710;SDS011;39605;52.704;6.752;2023-08-21T11:34:47;0.10;;;0.00;;
53710;SDS011;39605;52.704;6.752;2023-08-21T11:37:13;0.00;;;0.00;;
53710;SDS011;39605;52.704;6.752;2023-08-21T11:39:43;0.30;;;0.20;;
53710;SDS011;39605;52.704;6.752;2023-08-21T11:42:10;0.25;;;0.13;;
53710;SDS011;39605;52.704;6.752;2023-08-21T11:44:52;0.15;;;0.00;;
53710;SDS011;39605;52.704;6.752;2023-08-21T11:47:19;0.00;;;0.00;;
53710;SDS011;39605;52.704;6.752;2023-08-21T11:49:46;0.00;;;0.00;;
53710;SDS011;39605;52.704;6.752;2023-08-21T11:52:13;0.00;;;0.00;;
53710;SDS011;39605;52.704;6.752;2023-08-21T11:54:40;0.00;;;0.00;;
53710;SDS011;39605;52.704;6.752;2023-08-21T11:57:07;0.00;;;0.00;;
53710;SDS011;39605;52.704;6.752;2023-08-21T11:59:33;0.10;;;0.00;;
53710;SDS011;39605;52.704;6.752;2023-08-21T12:01:59;0.00;;;0.00;;
53710;SDS011;39605;52.704;6.752;2023-08-21T12:04:26;0.00;;;0.00;;
53710;SDS011;39605;52.704;6.752;2023-08-21T12:06:52;0.00;;;0.00;;
53710;SDS011;39605;52.704;6.752;2023-08-21T12:09:18;0.00;;;0.00;;
53710;SDS011;39605;52.704;6.752;2023-08-21T12:11:45;0.00;;;0.00;;
53710;SDS011;39605;52.704;6.752;2023-08-21T12:14:11;0.00;;;0.00;;
53710;SDS011;39605;52.704;6.752;2023-08-21T12:16:37;0.00;;;0.00;;
53710;SDS011;39605;52.704;6.752;2023-08-21T12:19:03;0.00;;;0.00;;
53710;SDS011;39605;52.704;6.752;2023-08-21T12:21:29;0.15;;;0.00;;
53710;SDS011;39605;52.704;6.752;2023-08-21T12:23:55;0.00;;;0.00;;
53710;SDS011;39605;52.704;6.752;2023-08-21T12:26:22;0.00;;;0.00;;
53710;SDS011;39605;52.704;6.752;2023-08-21T12:28:48;0.00;;;0.00;;
53710;SDS011;39605;52.704;6.752;2023-08-21T12:31:15;0.00;;;0.00;;
53710;SDS011;39605;52.704;6.752;2023-08-21T12:33:41;0.00;;;0.00;;
53710;SDS011;39605;52.704;6.752;2023-08-21T12:36:07;0.00;;;0.00;;
53710;SDS011;39605;52.704;6.752;2023-08-21T12:38:36;0.00;;;0.00;;
53710;SDS011;39605;52.704;6.752;2023-08-21T12:41:02;0.00;;;0.00;;
53710;SDS011;39605;52.704;6.752;2023-08-21T12:43:28;0.00;;;0.00;;
53710;SDS011;39605;52.704;6.752;2023-08-21T12:45:55;0.00;;;0.00;;
53710;SDS011;39605;52.704;6.752;2023-08-21T12:48:21;0.00;;;0.00;;
53710;SDS011;39605;52.704;6.752;2023-08-21T12:50:47;0.00;;;0.00;;
53710;SDS011;39605;52.704;6.752;2023-08-21T12:53:13;0.00;;;0.00;;
53710;SDS011;39605;52.704;6.752;2023-08-21T12:55:39;0.05;;;0.00;;
53710;SDS011;39605;52.704;6.752;2023-08-21T12:58:05;0.15;;;0.15;;
53710;SDS011;39605;52.704;6.752;2023-08-21T13:00:31;0.00;;;0.00;;
53710;SDS011;39605;52.704;6.752;2023-08-21T13:02:57;0.00;;;0.00;;
53710;SDS011;39605;52.704;6.752;2023-08-21T13:05:24;0.00;;;0.00;;
53710;SDS011;39605;52.704;6.752;2023-08-21T13:07:50;0.10;;;0.00;;
53710;SDS011;39605;52.704;6.752;2023-08-21T13:10:16;0.00;;;0.00;;
53710;SDS011;39605;52.704;6.752;2023-08-21T13:12:42;0.10;;;0.00;;
53710;SDS011;39605;52.704;6.752;2023-08-21T13:15:09;0.00;;;0.00;;
53710;SDS011;39605;52.704;6.752;2023-08-21T13:17:35;0.00;;;0.00;;
53710;SDS011;39605;52.704;6.752;2023-08-21T13:20:02;0.00;;;0.00;;
53710;SDS011;39605;52.704;6.752;2023-08-21T13:22:28;0.00;;;0.00;;
53710;SDS011;39605;52.704;6.752;2023-08-21T13:24:54;0.05;;;0.05;;
53710;SDS011;39605;52.704;6.752;2023-08-21T13:27:20;0.00;;;0.00;;
53710;SDS011;39605;52.704;6.752;2023-08-21T13:29:46;0.08;;;0.00;;
53710;SDS011;39605;52.704;6.752;2023-08-21T13:32:12;0.00;;;0.00;;
53710;SDS011;39605;52.704;6.752;2023-08-21T13:34:38;0.00;;;0.00;;
53710;SDS011;39605;52.704;6.752;2023-08-21T13:37:04;0.00;;;0.00;;
53710;SDS011;39605;52.704;6.752;2023-08-21T13:39:30;0.00;;;0.00;;
53710;SDS011;39605;52.704;6.752;2023-08-21T13:41:56;0.00;;;0.00;;
53710;SDS011;39605;52.704;6.752;2023-08-21T13:44:22;0.00;;;0.00;;
53710;SDS011;39605;52.704;6.752;2023-08-21T13:46:48;0.00;;;0.00;;
53710;SDS011;39605;52.704;6.752;2023-08-21T13:49:14;0.00;;;0.00;;
53710;SDS011;39605;52.704;6.752;2023-08-21T13:51:40;0.00;;;0.00;;
53710;SDS011;39605;52.704;6.752;2023-08-21T13:54:07;0.22;;;0.13;;
53710;SDS011;39605;52.704;6.752;2023-08-21T13:56:33;0.00;;;0.00;;
53710;SDS011;39605;52.704;6.752;2023-08-21T13:58:59;0.00;;;0.00;;
53710;SDS011;39605;52.704;6.752;2023-08-21T14:01:25;0.00;;;0.00;;
53710;SDS011;39605;52.704;6.752;2023-08-21T14:03:51;0.00;;;0.00;;
53710;SDS011;39605;52.704;6.752;2023-08-21T14:06:17;0.00;;;0.00;;
53710;SDS011;39605;52.704;6.752;2023-08-21T14:08:43;0.55;;;0.00;;
53710;SDS011;39605;52.704;6.752;2023-08-21T14:11:09;1.35;;;0.00;;
53710;SDS011;39605;52.704;6.752;2023-08-21T14:13:35;0.15;;;0.05;;
53710;SDS011;39605;52.704;6.752;2023-08-21T14:16:02;0.00;;;0.00;;
53710;SDS011;39605;52.704;6.752;2023-08-21T14:18:28;0.70;;;0.05;;
53710;SDS011;39605;52.704;6.752;2023-08-21T14:20:54;0.00;;;0.00;;
53710;SDS011;39605;52.704;6.752;2023-08-21T14:23:20;0.55;;;0.10;;
53710;SDS011;39605;52.704;6.752;2023-08-21T14:25:46;0.00;;;0.00;;
53710;SDS011;39605;52.704;6.752;2023-08-21T14:28:12;0.00;;;0.00;;
53710;SDS011;39605;52.704;6.752;2023-08-21T14:30:38;0.00;;;0.00;;
53710;SDS011;39605;52.704;6.752;2023-08-21T14:33:04;0.00;;;0.00;;
53710;SDS011;39605;52.704;6.752;2023-08-21T14:35:30;0.00;;;0.00;;
53710;SDS011;39605;52.704;6.752;2023-08-21T14:37:56;0.00;;;0.00;;
53710;SDS011;39605;52.704;6.752;2023-08-21T14:40:22;0.10;;;0.00;;
53710;SDS011;39605;52.704;6.752;2023-08-21T14:42:48;0.15;;;0.00;;
53710;SDS011;39605;52.704;6.752;2023-08-21T14:45:15;0.30;;;0.00;;
53710;SDS011;39605;52.704;6.752;2023-08-21T14:47:41;0.00;;;0.00;;
53710;SDS011;39605;52.704;6.752;2023-08-21T14:50:07;0.10;;;0.00;;
53710;SDS011;39605;52.704;6.752;2023-08-21T14:52:33;0.00;;;0.00;;
53710;SDS011;39605;52.704;6.752;2023-08-21T14:54:59;0.00;;;0.00;;
53710;SDS011;39605;52.704;6.752;2023-08-21T14:57:25;0.00;;;0.00;;
53710;SDS011;39605;52.704;6.752;2023-08-21T14:59:51;0.00;;;0.00;;
53710;SDS011;39605;52.704;6.752;2023-08-21T15:02:18;0.00;;;0.00;;
53710;SDS011;39605;52.704;6.752;2023-08-21T15:04:44;0.00;;;0.00;;